Disclaimer

Please do not use the information listed here in-flight or in-navigation, as they are not provided to us by the airports but are provided by volunteers, so they might be outdated.

Search


Regions


Airport information page

Radio informations:
Tower (TWR) - 118.1 MHz
Automatic Terminal Information Service (ATIS) - 126.85 MHz

Airport informations:
Latitude: 30° 22' 16.00" N
Longitude: 048° 13' 42.00" E
Elevation: 19 feet - 6 meters
Operating hours: Remarks
Operating agency: Civil government, landing fees and diplomatic clearance may be required
Timezone: UTC+3:30
Fuel: Jet A1, without icing nhibitor.

Runway information:
14R/32L - 10174 x 148 feet< - >3101 x 45 meters
14L/32R - 7430 x 115 feet< - >2265 x 35 meters

Recent METARs:
OIAA 151100Z 08014KT 8000 -RA SCT030CB SCT035 OVC090 20/19 Q1013
OIAA 151200Z 09016KT 8000 -RA SCT030CB SCT035 OVC090 20/18 Q1013
OIAA 151200Z 09016KT 8000 -RA SCT030CB SCT035 OVC090 20/18 Q1013

Airport on the map: